Time;durP1;ratioP1;P1;durP2;ratioP2;P2;SDS_P1;SDS_P2;PMS_P1;PMS_P2;Temp;Humidity;BMP_temperature;BMP_pressure;BME280_temperature;BME280_humidity;BME280_pressure;Samples;Min_cycle;Max_cycle;Signal;HPM_P1;HPM_P2
2023/08/27 00:01:13;;;;;;;8.07;4.82;;;;;;;15.94;100.00;100916.91;5024528;28;20874;-72
2023/08/27 00:03:39;;;;;;;6.65;5.10;;;;;;;15.96;100.00;100920.31;5029223;28;20038;-73
2023/08/27 00:06:05;;;;;;;7.28;4.95;;;;;;;15.87;100.00;100919.25;5029435;28;21061;-72
2023/08/27 00:08:31;;;;;;;6.85;5.07;;;;;;;15.82;100.00;100907.19;5028140;28;20029;-73
2023/08/27 00:10:58;;;;;;;6.80;5.45;;;;;;;15.70;100.00;100895.63;5027898;28;20033;-72
2023/08/27 00:13:23;;;;;;;9.48;5.85;;;;;;;15.74;100.00;100891.69;5027577;28;20045;-72
2023/08/27 00:15:49;;;;;;;14.65;6.15;;;;;;;15.80;100.00;100893.84;5029047;28;20044;-73
2023/08/27 00:18:14;;;;;;;10.30;5.55;;;;;;;15.79;100.00;100892.16;5027321;28;20095;-72
2023/08/27 00:20:41;;;;;;;12.23;5.43;;;;;;;15.75;100.00;100888.88;5029826;28;20033;-74
2023/08/27 00:23:08;;;;;;;6.22;5.00;;;;;;;15.83;100.00;100882.00;5027255;28;20034;-73
2023/08/27 00:25:34;;;;;;;7.72;5.22;;;;;;;15.97;100.00;100882.53;5025937;28;21004;-73
2023/08/27 00:28:00;;;;;;;7.57;4.97;;;;;;;16.03;100.00;100884.69;5025323;28;20128;-72
2023/08/27 00:30:25;;;;;;;9.10;5.38;;;;;;;16.10;100.00;100884.16;5023926;28;20034;-73
2023/08/27 00:32:51;;;;;;;11.88;6.03;;;;;;;16.14;100.00;100875.69;5020282;28;20874;-73
2023/08/27 00:35:16;;;;;;;7.90;5.55;;;;;;;16.18;100.00;100879.00;5029605;28;20034;-73
2023/08/27 00:37:42;;;;;;;10.25;5.35;;;;;;;16.27;100.00;100884.44;5022888;28;20828;-73
2023/08/27 00:40:08;;;;;;;14.70;5.50;;;;;;;16.28;100.00;100896.88;5024794;28;20042;-72
2023/08/27 00:42:35;;;;;;;9.30;5.85;;;;;;;16.26;100.00;100890.78;5060244;28;20065;-72
2023/08/27 00:45:00;;;;;;;8.88;6.13;;;;;;;16.07;100.00;100887.97;5023734;28;20038;-72
2023/08/27 00:47:27;;;;;;;8.13;6.40;;;;;;;16.27;100.00;100889.81;5058346;28;20029;-72
2023/08/27 00:49:52;;;;;;;11.75;5.57;;;;;;;16.33;100.00;100882.19;5026133;28;20033;-73
2023/08/27 00:52:20;;;;;;;6.57;5.00;;;;;;;16.30;100.00;100875.22;5022333;28;20045;-72
2023/08/27 00:54:46;;;;;;;9.18;5.90;;;;;;;16.41;100.00;100875.13;5023804;28;20029;-72
2023/08/27 00:57:14;;;;;;;7.93;5.05;;;;;;;16.43;100.00;100877.72;5028761;28;20037;-73
2023/08/27 00:59:40;;;;;;;6.30;4.85;;;;;;;16.24;100.00;100868.53;5026588;28;20068;-73
2023/08/27 01:02:06;;;;;;;8.18;6.22;;;;;;;16.32;100.00;100875.97;5029688;28;20084;-73
2023/08/27 01:04:31;;;;;;;11.70;6.18;;;;;;;16.33;100.00;100874.97;5028651;28;20414;-73
2023/08/27 01:07:05;;;;;;;7.05;6.35;;;;;;;16.25;100.00;100885.53;5027960;28;20084;-72
2023/08/27 01:09:44;;;;;;;9.00;7.03;;;;;;;16.24;100.00;100881.13;5028471;28;20060;-72
2023/08/27 01:12:18;;;;;;;7.80;6.85;;;;;;;16.28;100.00;100871.81;5059607;28;20127;-73
2023/08/27 01:14:48;;;;;;;9.38;6.70;;;;;;;16.23;100.00;100864.16;5019458;28;20034;-72
2023/08/27 01:17:16;;;;;;;10.40;6.97;;;;;;;16.28;100.00;100848.44;5044707;28;20049;-73
2023/08/27 01:19:43;;;;;;;7.25;6.55;;;;;;;16.25;100.00;100854.09;5026503;28;20038;-73
2023/08/27 01:22:08;;;;;;;7.95;6.63;;;;;;;16.30;100.00;100864.44;5039152;28;20041;-72
2023/08/27 01:24:34;;;;;;;10.13;7.07;;;;;;;16.13;100.00;100852.47;5027253;28;20037;-72
2023/08/27 01:27:16;;;;;;;9.63;6.28;;;;;;;16.31;100.00;100853.56;5000253;28;20034;-72
2023/08/27 01:29:50;;;;;;;7.88;6.82;;;;;;;16.16;100.00;100851.34;5023802;28;20033;-72
2023/08/27 01:32:26;;;;;;;9.73;7.18;;;;;;;16.25;100.00;100846.00;5023286;28;20050;-72
2023/08/27 01:34:53;;;;;;;9.18;6.38;;;;;;;16.36;100.00;100833.47;5026112;28;20030;-72
2023/08/27 01:37:20;;;;;;;12.23;6.60;;;;;;;16.43;100.00;100823.88;5024191;28;20145;-72
2023/08/27 01:39:46;;;;;;;13.00;6.57;;;;;;;16.47;100.00;100811.84;5022598;28;20161;-73
2023/08/27 01:42:12;;;;;;;13.63;7.65;;;;;;;16.46;100.00;100810.13;5039437;28;20121;-72
2023/08/27 01:44:38;;;;;;;7.60;6.45;;;;;;;16.50;100.00;100817.78;5025707;28;20029;-72
2023/08/27 01:47:05;;;;;;;7.38;6.57;;;;;;;16.52;100.00;100809.59;5025782;28;20034;-73
2023/08/27 01:49:31;;;;;;;6.93;6.25;;;;;;;16.25;100.00;100799.41;5026558;28;20111;-73
2023/08/27 01:51:56;;;;;;;7.18;5.97;;;;;;;16.17;100.00;100796.56;5031531;28;20091;-73
2023/08/27 01:54:22;;;;;;;11.55;6.47;;;;;;;16.17;100.00;100799.25;5026564;28;20037;-72
2023/08/27 01:56:48;;;;;;;10.98;6.43;;;;;;;16.20;100.00;100789.06;5062737;28;20819;-73
2023/08/27 01:59:13;;;;;;;7.80;5.78;;;;;;;16.12;100.00;100790.75;5061747;28;20040;-72
2023/08/27 02:01:39;;;;;;;9.65;6.18;;;;;;;16.15;100.00;100796.69;5031473;28;20037;-72
2023/08/27 02:04:05;;;;;;;9.25;6.50;;;;;;;16.10;100.00;100798.06;5029915;28;20057;-72
2023/08/27 02:06:30;;;;;;;6.82;6.18;;;;;;;15.79;100.00;100796.22;5031165;28;20112;-72
2023/08/27 02:08:56;;;;;;;9.52;6.93;;;;;;;15.89;100.00;100798.09;5034252;28;20034;-73
2023/08/27 02:11:21;;;;;;;7.45;5.63;;;;;;;16.00;100.00;100803.41;5025120;28;20053;-72
2023/08/27 02:13:47;;;;;;;14.35;6.22;;;;;;;16.08;100.00;100808.13;5025313;28;20069;-73
2023/08/27 02:16:12;;;;;;;6.82;6.13;;;;;;;16.20;100.00;100833.94;5034839;28;20693;-73
2023/08/27 02:18:38;;;;;;;6.57;5.90;;;;;;;16.29;100.00;100825.09;5032390;28;20061;-72
2023/08/27 02:21:04;;;;;;;14.30;6.43;;;;;;;16.35;100.00;100819.16;5026175;28;20037;-72
2023/08/27 02:23:30;;;;;;;10.98;5.80;;;;;;;16.38;100.00;100821.59;5047635;28;20051;-72
2023/08/27 02:25:55;;;;;;;9.52;5.75;;;;;;;16.39;100.00;100806.28;5029050;28;20045;-72
2023/08/27 02:28:21;;;;;;;7.03;4.93;;;;;;;16.43;100.00;100794.28;5023350;28;20038;-72
2023/08/27 02:30:53;;;;;;;8.00;5.93;;;;;;;16.43;100.00;100795.13;5032823;28;20040;-73
2023/08/27 02:33:19;;;;;;;10.70;6.00;;;;;;;16.40;100.00;100783.75;5013101;28;20040;-72
2023/08/27 02:35:45;;;;;;;7.05;5.55;;;;;;;16.42;100.00;100774.56;5032220;28;22020;-72
2023/08/27 02:38:10;;;;;;;8.20;5.70;;;;;;;16.45;100.00;100782.34;5034481;28;20037;-73
2023/08/27 02:40:37;;;;;;;11.30;6.00;;;;;;;16.41;100.00;100794.38;5033796;28;20041;-72
2023/08/27 02:43:03;;;;;;;7.78;5.57;;;;;;;16.46;100.00;100793.97;5034665;28;20026;-72
2023/08/27 02:45:29;;;;;;;8.70;5.65;;;;;;;16.42;100.00;100787.19;5020851;28;20248;-72
2023/08/27 02:47:54;;;;;;;14.23;5.90;;;;;;;16.38;100.00;100799.22;5029637;28;20048;-72
2023/08/27 02:50:20;;;;;;;10.82;5.63;;;;;;;16.30;100.00;100795.34;5027731;28;20041;-72
2023/08/27 02:52:46;;;;;;;14.48;6.97;;;;;;;16.29;100.00;100785.56;5049211;28;20072;-72
2023/08/27 02:55:11;;;;;;;7.93;5.50;;;;;;;16.27;100.00;100781.31;5065622;28;20147;-72
2023/08/27 02:57:37;;;;;;;8.88;6.38;;;;;;;16.24;100.00;100781.56;5033965;28;20033;-73
2023/08/27 03:00:03;;;;;;;9.45;6.03;;;;;;;16.18;100.00;100787.50;5035834;28;20087;-72
2023/08/27 03:02:29;;;;;;;10.90;6.00;;;;;;;16.08;100.00;100790.16;5033416;28;20045;-72
2023/08/27 03:04:56;;;;;;;8.30;6.28;;;;;;;16.05;100.00;100787.72;5016111;28;20113;-72
2023/08/27 03:07:23;;;;;;;10.73;6.13;;;;;;;15.94;100.00;100794.03;5040591;28;20116;-72
2023/08/27 03:09:48;;;;;;;10.63;5.90;;;;;;;15.99;100.00;100794.47;5036940;28;20048;-72
2023/08/27 03:12:14;;;;;;;17.30;6.30;;;;;;;15.99;100.00;100796.31;5035016;28;20057;-72
2023/08/27 03:14:40;;;;;;;8.73;6.35;;;;;;;15.91;100.00;100802.34;5034262;28;20906;-72
2023/08/27 03:17:06;;;;;;;10.63;5.88;;;;;;;15.88;100.00;100793.72;5036102;28;20084;-73
2023/08/27 03:19:32;;;;;;;12.35;6.43;;;;;;;15.93;100.00;100791.47;5030291;28;20096;-73
2023/08/27 03:21:57;;;;;;;9.00;6.03;;;;;;;15.93;100.00;100796.88;5037113;28;20048;-72
2023/08/27 03:24:23;;;;;;;7.78;6.60;;;;;;;15.96;100.00;100805.50;5036588;28;20033;-72
2023/08/27 03:26:49;;;;;;;9.38;6.82;;;;;;;16.04;100.00;100786.00;5033935;28;20542;-72
2023/08/27 03:29:15;;;;;;;16.02;7.53;;;;;;;16.03;100.00;100787.00;5036146;28;20034;-72
2023/08/27 03:31:41;;;;;;;9.25;7.07;;;;;;;16.08;100.00;100794.69;5034951;28;20038;-73
2023/08/27 03:34:08;;;;;;;9.85;6.88;;;;;;;16.07;100.00;100791.13;5036791;28;20049;-72
2023/08/27 03:36:34;;;;;;;9.90;7.03;;;;;;;16.08;100.00;100794.69;5065761;28;20866;-72
2023/08/27 03:38:59;;;;;;;10.70;7.78;;;;;;;15.97;100.00;100799.16;5019004;28;20034;-72
2023/08/27 03:41:25;;;;;;;10.80;7.47;;;;;;;16.02;100.00;100810.38;5033312;28;20071;-73
2023/08/27 03:43:50;;;;;;;11.15;8.63;;;;;;;15.99;100.00;100807.94;5021916;28;20045;-72
2023/08/27 03:46:16;;;;;;;10.10;9.05;;;;;;;15.95;100.00;100811.00;5045967;28;20038;-73
2023/08/27 03:48:41;;;;;;;10.95;9.05;;;;;;;16.06;100.00;100810.94;5029048;28;20098;-72
2023/08/27 03:51:07;;;;;;;11.68;10.23;;;;;;;16.03;100.00;100817.44;5030814;28;20899;-72
2023/08/27 03:53:33;;;;;;;11.10;9.18;;;;;;;16.02;100.00;100822.97;5061534;28;20586;-72
2023/08/27 03:56:05;;;;;;;14.02;9.65;;;;;;;15.99;100.00;100834.84;5004804;28;20450;-73
2023/08/27 03:58:31;;;;;;;12.10;9.57;;;;;;;15.96;100.00;100829.69;5041723;28;20523;-72
2023/08/27 04:00:57;;;;;;;11.95;9.45;;;;;;;15.78;100.00;100810.63;5026160;28;20041;-72
2023/08/27 04:03:23;;;;;;;8.43;6.80;;;;;;;15.61;100.00;100802.25;5015725;28;20783;-73
2023/08/27 04:05:49;;;;;;;8.10;6.63;;;;;;;15.37;100.00;100815.97;5044102;28;20033;-72
2023/08/27 04:08:16;;;;;;;7.72;5.88;;;;;;;15.31;100.00;100811.09;5018439;28;20129;-71
2023/08/27 04:10:52;;;;;;;7.47;5.22;;;;;;;15.20;100.00;100807.47;5029457;28;20037;-72
2023/08/27 04:13:18;;;;;;;5.22;3.63;;;;;;;15.27;100.00;100811.34;5040870;28;20935;-72
2023/08/27 04:16:00;;;;;;;6.70;5.65;;;;;;;15.31;100.00;100817.31;5025445;28;20136;-72
2023/08/27 04:18:27;;;;;;;10.05;4.82;;;;;;;15.16;100.00;100830.22;5030849;28;20041;-72
2023/08/27 04:20:53;;;;;;;7.68;5.03;;;;;;;15.13;100.00;100822.41;5034659;28;20041;-72
2023/08/27 04:23:18;;;;;;;12.88;5.75;;;;;;;15.22;100.00;100840.44;5025847;28;20073;-73
2023/08/27 04:25:44;;;;;;;7.40;5.38;;;;;;;15.19;100.00;100866.69;5027022;28;20026;-72
2023/08/27 04:28:10;;;;;;;12.45;5.43;;;;;;;15.23;100.00;100876.22;5029747;28;20044;-72
2023/08/27 04:30:36;;;;;;;9.88;4.95;;;;;;;15.16;100.00;100886.63;5027974;28;20041;-73
2023/08/27 04:33:02;;;;;;;14.60;5.40;;;;;;;15.18;100.00;100865.84;5029158;28;20041;-73
2023/08/27 04:35:28;;;;;;;8.43;4.50;;;;;;;15.22;100.00;100848.50;5029173;28;20032;-72
2023/08/27 04:37:53;;;;;;;10.07;4.45;;;;;;;15.32;100.00;100843.22;5028653;28;20191;-72
2023/08/27 04:40:19;;;;;;;16.10;5.90;;;;;;;15.21;100.00;100857.53;5029280;28;20115;-72
2023/08/27 04:42:44;;;;;;;9.43;5.38;;;;;;;15.13;100.00;100880.63;5028017;28;20041;-72
2023/08/27 04:45:10;;;;;;;8.35;5.40;;;;;;;15.27;100.00;100881.22;5040787;28;20030;-72
2023/08/27 04:47:35;;;;;;;8.02;5.30;;;;;;;15.13;100.00;100886.00;5024613;28;20848;-72
2023/08/27 04:50:01;;;;;;;12.85;6.07;;;;;;;15.17;100.00;100891.00;5043955;28;20092;-72
2023/08/27 04:52:27;;;;;;;10.90;5.78;;;;;;;15.03;100.00;100878.69;5022814;28;20046;-72
2023/08/27 04:54:52;;;;;;;12.32;5.28;;;;;;;15.22;100.00;100845.81;5028080;28;20037;-72
2023/08/27 04:57:18;;;;;;;10.27;4.90;;;;;;;15.36;100.00;100843.78;5028723;28;20033;-73
2023/08/27 04:59:43;;;;;;;9.82;4.43;;;;;;;15.46;100.00;100855.47;5060897;28;20124;-72
2023/08/27 05:02:09;;;;;;;9.63;4.93;;;;;;;15.47;100.00;100851.84;5044401;28;20081;-72
2023/08/27 05:04:35;;;;;;;8.77;4.13;;;;;;;15.42;100.00;100851.38;5021995;28;20034;-73
2023/08/27 05:07:01;;;;;;;7.18;4.10;;;;;;;15.39;100.00;100847.09;5019102;28;20041;-72
2023/08/27 05:09:27;;;;;;;6.05;3.88;;;;;;;15.46;100.00;100850.09;5009534;28;20084;-72
2023/08/27 05:11:52;;;;;;;5.32;3.45;;;;;;;15.45;100.00;100845.72;5027479;28;20383;-72
2023/08/27 05:14:18;;;;;;;8.95;4.40;;;;;;;15.34;100.00;100848.44;5016816;28;20530;-72
2023/08/27 05:16:44;;;;;;;6.43;3.55;;;;;;;15.31;100.00;100848.69;5027192;28;20053;-73
2023/08/27 05:19:10;;;;;;;8.73;4.22;;;;;;;15.33;100.00;100855.66;5056418;28;20041;-73
2023/08/27 05:21:36;;;;;;;4.88;3.53;;;;;;;15.42;100.00;100857.59;5021433;28;20045;-72
2023/08/27 05:24:02;;;;;;;5.78;4.20;;;;;;;15.45;100.00;100861.84;5015222;28;20040;-72
2023/08/27 05:26:28;;;;;;;7.85;4.07;;;;;;;15.45;100.00;100865.38;5028930;28;20103;-72
2023/08/27 05:28:55;;;;;;;5.38;3.60;;;;;;;15.35;100.00;100861.75;5028086;28;20080;-71
2023/08/27 05:31:21;;;;;;;7.60;3.78;;;;;;;15.47;100.00;100857.22;5059940;28;20113;-73
2023/08/27 05:33:46;;;;;;;7.38;3.30;;;;;;;15.36;100.00;100841.09;5027706;28;20045;-73
2023/08/27 05:36:12;;;;;;;5.68;3.10;;;;;;;15.20;100.00;100855.81;5029813;28;20034;-73
2023/08/27 05:38:37;;;;;;;10.45;3.65;;;;;;;15.25;100.00;100856.28;5020105;28;20045;-73
2023/08/27 05:41:03;;;;;;;9.68;4.47;;;;;;;15.41;100.00;100855.00;5041477;28;20049;-72
2023/08/27 05:43:28;;;;;;;8.25;3.97;;;;;;;15.18;100.00;100848.88;5007206;28;20030;-72
2023/08/27 05:45:54;;;;;;;11.70;5.18;;;;;;;15.39;100.00;100846.22;5027884;28;20339;-73
2023/08/27 05:48:20;;;;;;;10.15;4.80;;;;;;;15.47;100.00;100843.78;5028268;28;20089;-72
2023/08/27 05:50:45;;;;;;;12.70;5.32;;;;;;;15.36;100.00;100835.72;5028791;28;20038;-72
2023/08/27 05:53:11;;;;;;;9.07;4.47;;;;;;;15.27;100.00;100826.63;5018040;28;20045;-73
2023/08/27 05:55:37;;;;;;;9.15;5.13;;;;;;;15.25;100.00;100825.88;5025531;28;20406;-73
2023/08/27 05:58:04;;;;;;;10.40;5.40;;;;;;;15.28;100.00;100833.69;5035682;28;21425;-72
2023/08/27 06:00:30;;;;;;;6.05;5.13;;;;;;;15.36;100.00;100827.66;5058103;28;20064;-72
2023/08/27 06:02:55;;;;;;;10.55;4.85;;;;;;;15.17;100.00;100823.00;5024709;28;20030;-72
2023/08/27 06:05:21;;;;;;;7.43;4.47;;;;;;;15.36;100.00;100827.66;5038641;28;20038;-72
2023/08/27 06:07:46;;;;;;;7.60;4.45;;;;;;;15.74;100.00;100821.78;5024763;28;20038;-72
2023/08/27 06:10:12;;;;;;;9.30;4.50;;;;;;;15.98;100.00;100808.94;5026111;28;20452;-73
2023/08/27 06:12:37;;;;;;;7.00;4.30;;;;;;;16.13;100.00;100806.75;5027196;28;20053;-72
2023/08/27 06:15:04;;;;;;;7.30;3.75;;;;;;;16.33;100.00;100802.31;5024979;28;20041;-73
2023/08/27 06:17:30;;;;;;;6.93;3.33;;;;;;;16.37;100.00;100806.44;5011536;28;20084;-72
2023/08/27 06:19:55;;;;;;;4.70;2.97;;;;;;;16.38;100.00;100809.97;5015073;28;20092;-72
2023/08/27 06:22:21;;;;;;;5.68;3.17;;;;;;;16.53;100.00;100817.53;5056538;28;20041;-72
2023/08/27 06:24:46;;;;;;;4.88;2.67;;;;;;;16.81;100.00;100818.63;5025587;28;20042;-73
2023/08/27 06:27:15;;;;;;;5.57;3.33;;;;;;;16.96;100.00;100799.38;5026164;28;20847;-73
2023/08/27 06:29:44;;;;;;;7.28;3.60;;;;;;;16.90;100.00;100781.94;5028599;28;20115;-72
2023/08/27 06:32:10;;;;;;;4.65;3.22;;;;;;;16.92;100.00;100779.09;5062999;28;20029;-72
2023/08/27 06:34:35;;;;;;;8.77;3.50;;;;;;;16.84;100.00;100782.50;5029102;28;20653;-72
2023/08/27 06:37:01;;;;;;;7.00;3.05;;;;;;;16.77;100.00;100775.97;5026534;28;20034;-73
2023/08/27 06:39:27;;;;;;;6.88;3.40;;;;;;;16.62;100.00;100782.69;5026928;28;20149;-72
2023/08/27 06:41:52;;;;;;;4.22;3.00;;;;;;;16.69;100.00;100786.56;5028865;28;20037;-72
2023/08/27 06:44:19;;;;;;;8.13;3.67;;;;;;;16.79;100.00;100784.75;5031076;28;20048;-72
2023/08/27 06:46:49;;;;;;;9.25;3.65;;;;;;;16.71;100.00;100782.75;5062127;28;20124;-73
2023/08/27 06:49:14;;;;;;;5.72;3.53;;;;;;;16.73;100.00;100775.41;5030748;28;20574;-72
2023/08/27 06:51:40;;;;;;;6.93;3.45;;;;;;;17.24;100.00;100786.94;5037963;28;20032;-73
2023/08/27 06:54:08;;;;;;;6.60;3.38;;;;;;;17.58;100.00;100784.66;5032367;28;20044;-73
2023/08/27 06:56:34;;;;;;;10.23;3.78;;;;;;;18.03;100.00;100776.78;5040056;28;20034;-72
2023/08/27 06:58:59;;;;;;;4.70;2.92;;;;;;;18.32;100.00;100767.69;5030892;28;20029;-72
2023/08/27 07:01:27;;;;;;;6.88;3.00;;;;;;;18.36;100.00;100767.25;5016404;28;20805;-73
2023/08/27 07:03:53;;;;;;;7.75;3.40;;;;;;;18.44;100.00;100766.50;5039103;28;20030;-73
2023/08/27 07:06:20;;;;;;;3.95;2.80;;;;;;;18.26;100.00;100766.44;5027491;28;20465;-74
2023/08/27 07:08:45;;;;;;;3.83;3.42;;;;;;;18.31;100.00;100757.91;5022122;28;20085;-73
2023/08/27 07:11:11;;;;;;;7.03;3.45;;;;;;;18.47;100.00;100768.91;5027629;28;20544;-72
2023/08/27 07:13:37;;;;;;;4.45;3.17;;;;;;;18.36;100.00;100766.41;5020375;28;20040;-73
2023/08/27 07:16:03;;;;;;;5.40;3.50;;;;;;;18.62;100.00;100770.13;5028824;28;20057;-73
2023/08/27 07:18:29;;;;;;;6.50;3.60;;;;;;;18.65;100.00;100774.34;5027827;28;20883;-73
2023/08/27 07:20:55;;;;;;;4.95;3.70;;;;;;;18.55;100.00;100771.69;5031109;28;20030;-73
2023/08/27 07:23:21;;;;;;;6.50;3.63;;;;;;;18.70;100.00;100763.97;5020095;28;20041;-73
2023/08/27 07:25:46;;;;;;;10.02;3.67;;;;;;;18.75;100.00;100774.31;5030587;28;20039;-73
2023/08/27 07:28:12;;;;;;;5.00;3.30;;;;;;;18.90;100.00;100775.50;5033650;28;20029;-74
2023/08/27 07:30:38;;;;;;;6.05;3.30;;;;;;;18.91;100.00;100774.50;5048197;28;20498;-73
2023/08/27 07:33:06;;;;;;;4.82;3.72;;;;;;;19.01;100.00;100774.44;5027887;28;20074;-73
2023/08/27 07:35:32;;;;;;;8.00;4.05;;;;;;;18.73;100.00;100779.03;5033548;28;20072;-72
2023/08/27 07:37:58;;;;;;;8.63;4.38;;;;;;;19.22;100.00;100779.53;5039078;28;20033;-73
2023/08/27 07:40:25;;;;;;;7.05;4.35;;;;;;;19.40;100.00;100777.69;5044082;28;20041;-72
2023/08/27 07:42:50;;;;;;;6.43;3.78;;;;;;;19.29;100.00;100784.19;5028484;28;20045;-73
2023/08/27 07:45:16;;;;;;;7.55;4.50;;;;;;;19.47;100.00;100775.19;5031132;28;20069;-73
2023/08/27 07:47:42;;;;;;;7.85;4.78;;;;;;;19.66;100.00;100775.03;5048270;28;20081;-72
2023/08/27 07:50:08;;;;;;;13.20;5.63;;;;;;;19.47;100.00;100778.72;5041232;28;20034;-72
2023/08/27 07:52:33;;;;;;;8.43;4.85;;;;;;;19.53;100.00;100777.25;5033557;28;20045;-72
2023/08/27 07:54:59;;;;;;;11.27;5.05;;;;;;;19.43;100.00;100780.09;5018050;28;20794;-73
2023/08/27 07:57:25;;;;;;;7.90;4.88;;;;;;;19.63;100.00;100772.66;5068511;28;20042;-73
2023/08/27 07:59:51;;;;;;;8.70;4.95;;;;;;;19.83;100.00;100768.75;5029699;28;20542;-73
2023/08/27 08:02:18;;;;;;;7.70;4.93;;;;;;;19.86;100.00;100767.56;5032253;28;20034;-73
2023/08/27 08:04:44;;;;;;;9.23;4.88;;;;;;;20.17;100.00;100771.47;5052831;28;20950;-73
2023/08/27 08:07:09;;;;;;;10.05;5.30;;;;;;;20.12;100.00;100768.38;5032759;28;20144;-72
2023/08/27 08:09:35;;;;;;;10.07;5.28;;;;;;;20.21;100.00;100760.31;5038448;28;20045;-72
2023/08/27 08:12:01;;;;;;;18.58;7.30;;;;;;;20.57;100.00;100766.44;5038046;28;20219;-72
2023/08/27 08:14:27;;;;;;;8.45;5.85;;;;;;;20.25;100.00;100762.56;5045466;28;20180;-72
2023/08/27 08:16:53;;;;;;;7.88;5.05;;;;;;;20.47;100.00;100755.72;5040368;28;20037;-73
2023/08/27 08:19:20;;;;;;;9.40;5.72;;;;;;;20.35;100.00;100755.16;5032693;28;20033;-72
2023/08/27 08:21:46;;;;;;;8.90;4.47;;;;;;;20.47;100.00;100754.88;5031851;28;20438;-72
2023/08/27 08:24:13;;;;;;;14.38;6.18;;;;;;;20.46;100.00;100761.28;5032759;28;20032;-73
2023/08/27 08:26:38;;;;;;;9.10;5.45;;;;;;;20.72;100.00;100761.22;5024589;28;20038;-73
2023/08/27 08:29:04;;;;;;;11.57;5.32;;;;;;;21.10;100.00;100757.06;5025593;28;20034;-73
2023/08/27 08:31:29;;;;;;;10.52;4.95;;;;;;;21.20;100.00;100757.78;5030740;28;20053;-72
2023/08/27 08:33:55;;;;;;;7.90;4.32;;;;;;;21.65;100.00;100751.84;5025198;28;20856;-73
2023/08/27 08:36:21;;;;;;;10.27;4.60;;;;;;;21.80;100.00;100752.00;5023315;28;20778;-73
2023/08/27 08:38:46;;;;;;;12.73;5.13;;;;;;;21.55;100.00;100748.47;5028818;28;20348;-73
2023/08/27 08:41:18;;;;;;;8.32;4.90;;;;;;;21.21;99.83;100749.44;5021470;28;20419;-73
2023/08/27 08:43:51;;;;;;;7.88;4.13;;;;;;;20.72;100.00;100769.34;5041065;28;20029;-73
2023/08/27 08:46:18;;;;;;;7.63;4.72;;;;;;;20.73;100.00;100765.63;5061226;28;20034;-73
2023/08/27 08:48:49;;;;;;;15.55;5.05;;;;;;;20.17;100.00;100763.34;5023366;28;20033;-72
2023/08/27 08:51:22;;;;;;;10.73;5.15;;;;;;;20.22;100.00;100762.84;5023704;28;20080;-73
2023/08/27 08:53:50;;;;;;;8.43;4.82;;;;;;;20.33;100.00;100753.59;5026668;28;20164;-73
2023/08/27 08:56:27;;;;;;;11.65;4.72;;;;;;;20.16;100.00;100758.94;5025757;28;20041;-72
2023/08/27 08:58:57;;;;;;;11.23;5.82;;;;;;;20.18;100.00;100765.06;5023265;28;20123;-72
2023/08/27 09:01:24;;;;;;;7.70;5.18;;;;;;;20.18;100.00;100761.47;5026682;28;20033;-73
2023/08/27 09:03:51;;;;;;;10.80;5.68;;;;;;;20.50;100.00;100759.97;5022321;28;20095;-72
2023/08/27 09:06:20;;;;;;;8.13;4.97;;;;;;;21.20;100.00;100739.63;5024274;28;20040;-73
2023/08/27 09:08:46;;;;;;;13.35;7.07;;;;;;;21.44;100.00;100733.38;5021225;28;20040;-73
2023/08/27 09:11:12;;;;;;;5.88;4.75;;;;;;;21.81;96.91;100733.84;5021952;28;20065;-73
2023/08/27 09:13:38;;;;;;;7.05;4.38;;;;;;;21.77;94.87;100733.34;5019562;28;20052;-73
2023/08/27 09:16:06;;;;;;;4.45;3.75;;;;;;;22.19;96.56;100730.38;5026623;28;20054;-73
2023/08/27 09:18:31;;;;;;;9.38;3.78;;;;;;;22.54;94.49;100724.59;5020867;28;20038;-73
2023/08/27 09:20:59;;;;;;;6.43;3.40;;;;;;;22.00;91.24;100717.16;5030029;28;20042;-72
2023/08/27 09:23:25;;;;;;;7.20;3.92;;;;;;;21.74;89.64;100717.41;5028798;28;20029;-73
2023/08/27 09:25:52;;;;;;;8.10;3.30;;;;;;;21.40;90.14;100712.19;5040903;28;20542;-73
2023/08/27 09:28:19;;;;;;;8.32;2.83;;;;;;;21.37;88.10;100707.09;5023108;28;20034;-73
2023/08/27 09:30:45;;;;;;;6.60;2.97;;;;;;;20.93;90.93;100716.41;5025374;28;20049;-73
2023/08/27 09:33:10;;;;;;;8.13;3.10;;;;;;;20.83;93.66;100722.97;5016345;28;20057;-73
2023/08/27 09:35:38;;;;;;;5.47;3.17;;;;;;;21.32;92.67;100715.75;5031403;28;20033;-73
2023/08/27 09:38:04;;;;;;;5.07;3.17;;;;;;;21.23;90.64;100708.59;5024641;28;20069;-73
2023/08/27 09:40:30;;;;;;;4.78;3.40;;;;;;;21.80;90.08;100711.28;5018407;28;20038;-73
2023/08/27 09:43:06;;;;;;;6.30;3.53;;;;;;;21.84;86.43;100701.78;5022443;28;20068;-73
2023/08/27 09:45:36;;;;;;;5.32;2.92;;;;;;;22.38;86.04;100706.50;5022925;28;20034;-73
2023/08/27 09:48:03;;;;;;;13.18;3.10;;;;;;;22.21;83.01;100706.59;5020194;28;20038;-72
2023/08/27 09:50:31;;;;;;;7.80;2.70;;;;;;;22.47;81.34;100697.28;5021224;28;20022;-72
2023/08/27 09:53:12;;;;;;;6.20;3.05;;;;;;;22.37;79.97;100697.50;5021675;28;20105;-73
2023/08/27 09:55:38;;;;;;;7.22;3.13;;;;;;;22.15;79.31;100703.75;5011195;28;20507;-73
2023/08/27 09:58:04;;;;;;;6.10;2.58;;;;;;;22.28;78.22;100692.28;5024440;28;20068;-73
2023/08/27 10:00:31;;;;;;;10.77;2.95;;;;;;;22.35;78.60;100706.88;5020444;28;20041;-73
2023/08/27 10:02:57;;;;;;;5.30;2.42;;;;;;;22.31;76.53;100697.38;5016560;28;20049;-73
2023/08/27 10:05:28;;;;;;;7.20;2.67;;;;;;;22.56;77.09;100690.78;5014657;28;20113;-72
2023/08/27 10:08:02;;;;;;;8.67;3.17;;;;;;;22.43;79.58;100698.66;5022121;28;20033;-74
2023/08/27 10:10:28;;;;;;;5.88;2.65;;;;;;;22.44;79.37;100693.06;5017108;28;20389;-74
2023/08/27 10:12:55;;;;;;;5.45;2.47;;;;;;;22.91;76.75;100697.56;5024890;28;20081;-73
2023/08/27 10:15:26;;;;;;;5.40;2.65;;;;;;;23.10;74.61;100689.94;5022021;28;20053;-73
2023/08/27 10:17:53;;;;;;;7.50;2.40;;;;;;;23.23;73.48;100687.44;5023953;28;20041;-73
2023/08/27 10:20:20;;;;;;;5.70;2.65;;;;;;;23.38;74.78;100685.59;5017517;28;20050;-72
2023/08/27 10:22:47;;;;;;;5.47;2.03;;;;;;;23.43;73.68;100680.44;5022835;28;20025;-73
2023/08/27 10:25:17;;;;;;;4.97;1.88;;;;;;;23.43;72.69;100683.16;5027828;28;20033;-73
2023/08/27 10:27:47;;;;;;;5.63;2.30;;;;;;;22.47;75.30;100689.97;5028981;28;20064;-73
2023/08/27 10:30:18;;;;;;;4.75;2.10;;;;;;;22.55;73.96;100688.25;5027314;28;20041;-72
2023/08/27 10:32:44;;;;;;;6.50;2.17;;;;;;;22.19;73.93;100703.22;5023180;28;20051;-73
2023/08/27 10:35:10;;;;;;;4.40;2.17;;;;;;;22.32;72.39;100691.75;5025449;28;20034;-72
2023/08/27 10:37:48;;;;;;;4.07;1.90;;;;;;;22.72;73.65;100693.41;5028040;28;20041;-73
2023/08/27 10:40:15;;;;;;;7.63;2.13;;;;;;;22.53;73.19;100687.56;5023398;28;20113;-73
2023/08/27 10:42:41;;;;;;;7.72;2.20;;;;;;;22.47;72.00;100684.53;5026232;28;20038;-73
2023/08/27 10:45:09;;;;;;;4.53;1.90;;;;;;;22.16;69.88;100689.97;5040036;28;20129;-73
2023/08/27 10:47:35;;;;;;;7.88;2.35;;;;;;;22.59;72.33;100689.56;5021082;28;20039;-73
2023/08/27 10:50:00;;;;;;;5.10;1.75;;;;;;;23.24;68.51;100681.81;5024058;28;20052;-73
2023/08/27 10:52:26;;;;;;;4.68;1.73;;;;;;;23.24;68.40;100680.94;5019688;28;20042;-73
2023/08/27 10:55:01;;;;;;;4.30;1.80;;;;;;;23.00;69.32;100672.00;5023629;28;20654;-73
2023/08/27 10:57:27;;;;;;;6.03;2.03;;;;;;;22.68;67.67;100672.19;5023451;28;20041;-72
2023/08/27 11:00:10;;;;;;;2.58;1.63;;;;;;;23.51;66.83;100669.47;5025850;28;21169;-73
2023/08/27 11:02:58;;;;;;;4.18;2.20;;;;;;;23.72;68.78;100667.94;5019798;28;20144;-73
2023/08/27 11:05:28;;;;;;;4.78;2.00;;;;;;;23.47;65.86;100665.44;5021940;28;20089;-73
2023/08/27 11:07:58;;;;;;;4.20;1.80;;;;;;;23.83;66.39;100667.47;5029223;28;20418;-72
2023/08/27 11:10:33;;;;;;;3.88;1.90;;;;;;;23.95;65.73;100662.41;5021282;28;20042;-73
2023/08/27 11:12:58;;;;;;;5.57;2.13;;;;;;;23.21;65.73;100663.13;5059468;28;20068;-73
2023/08/27 11:15:31;;;;;;;5.30;1.77;;;;;;;22.89;65.42;100656.13;5030143;28;20040;-73